Hlavní strana
METAR-TAF:

METAR-TAF

Letiště :

Brønnøysund, Norsko

zeměpisná šířka: 65-28N, zeměpisná délka: 012-13E, výška: 0 m

Aktuální stav počasí

Zpráva byla vytvořena před 27 minutami, v 17:20 UTC
Severovýchodní vítr 3 kt
Teplota -2°C
Vlhkost vzduchu 86%
Tlak 1019 hPa
Viditelnost 10 km a více
Skoro jasno ve výšce 1000 ft, Cumulonimbus.
přeháňky v blízkosti

METAR: ENBN 071720Z 05003KT 9999 VCSH FEW010CB M02/M04 Q1019

Čas: 18:47 (17:47 UTC)

Předpověď počasí

Zpráva byla vytvořena před 3 hodinami a 47 minutami, v 14:00 UTC
Předpověď platná od 07 v 15 UTC do 07 v 24 UTC
vítr z různých směrů 3 kt
Viditelnost 10 km a více
Skoro jasno ve výšce 1000 ft, Cumulonimbus.
Polojasno ve výšce 5000 ft

TAF: ENBN 071400Z 0715/0724 VRB03KT 9999 FEW010CB SCT050

Stav a předpovědi počasí z více než 4 000 letišť (zprávy METAR a TAF).

Červené a žluté tečky na mapě představují dostupné meteorologické stanice.

Když kurzor umístíte na tečku, zobrazí se název stanice.

Pak kliknutím zobrazíte stav a předpověď počasí.

Chcete-li změnit mapu, kliknutím na zelené tlačítko se znaménkem +mapu přiblížíte, kliknutím na zelené tlačítko se znaménkem – mapu oddálíte a kliknutím na zelené šipky přejdete na sousední mapy.


METAR-TAF: